createdAt,value
2022-08-25T00:01:39.386Z,101065.13
2022-08-25T00:04:10.814Z,101073.44
2022-08-25T00:06:39.928Z,101073.00
2022-08-25T00:09:08.293Z,101071.38
2022-08-25T00:11:37.284Z,101070.56
2022-08-25T00:14:07.592Z,101069.59
2022-08-25T00:16:34.847Z,101075.31
2022-08-25T00:19:10.598Z,101072.25
2022-08-25T00:21:38.043Z,101076.47
2022-08-25T00:24:05.068Z,101067.59
2022-08-25T00:26:32.382Z,101081.16
2022-08-25T00:29:01.817Z,101070.06
2022-08-25T00:31:38.598Z,101074.75
2022-08-25T00:34:12.759Z,101079.91
2022-08-25T00:36:39.543Z,101078.19
2022-08-25T00:39:07.771Z,101078.78
2022-08-25T00:41:35.357Z,101073.59
2022-08-25T00:44:05.545Z,101076.16
2022-08-25T00:46:38.833Z,101076.63
2022-08-25T00:49:25.326Z,101075.75
2022-08-25T00:52:01.736Z,101073.25
2022-08-25T00:54:37.915Z,101071.66
2022-08-25T00:57:07.388Z,101068.44
2022-08-25T00:59:34.338Z,101073.81
2022-08-25T01:02:01.835Z,101076.63
2022-08-25T01:04:28.717Z,101079.16
2022-08-25T01:06:57.927Z,101076.84
2022-08-25T01:09:24.933Z,101075.78
2022-08-25T01:11:51.630Z,101080.22
2022-08-25T01:14:21.572Z,101072.31
2022-08-25T01:16:51.222Z,101074.09
2022-08-25T01:19:21.927Z,101072.94
2022-08-25T01:21:51.469Z,101075.06
2022-08-25T01:24:29.600Z,101076.47
2022-08-25T01:26:56.163Z,101067.69
2022-08-25T01:29:25.222Z,101073.41
2022-08-25T01:31:58.744Z,101067.63
2022-08-25T01:34:28.080Z,101067.69
2022-08-25T01:36:56.111Z,101071.84
2022-08-25T01:39:23.263Z,101076.84
2022-08-25T01:41:58.335Z,101072.72
2022-08-25T01:44:26.223Z,101073.94
2022-08-25T01:46:53.333Z,101075.41
2022-08-25T01:49:20.580Z,101078.81
2022-08-25T01:51:52.800Z,101075.25
2022-08-25T01:54:20.135Z,101072.28
2022-08-25T01:56:46.701Z,101070.25
2022-08-25T01:59:16.938Z,101079.72
2022-08-25T02:01:50.885Z,101075.94
2022-08-25T02:04:27.058Z,101079.94
2022-08-25T02:06:53.618Z,101079.81
2022-08-25T02:09:20.183Z,101066.56
2022-08-25T02:11:47.817Z,101064.06
2022-08-25T02:14:15.644Z,101066.41
2022-08-25T02:16:46.363Z,101066.41
2022-08-25T02:19:13.254Z,101067.69
2022-08-25T02:21:40.026Z,101073.84
2022-08-25T02:24:07.406Z,101078.06
2022-08-25T02:26:36.501Z,101074.56
2022-08-25T02:29:04.419Z,101069.25
2022-08-25T02:31:31.636Z,101074.41
2022-08-25T02:33:58.230Z,101071.31
2022-08-25T02:36:25.694Z,101076.78
2022-08-25T02:38:52.759Z,101085.25
2022-08-25T02:41:22.987Z,101077.13
2022-08-25T02:43:57.844Z,101077.13
2022-08-25T02:46:25.042Z,101077.41
2022-08-25T02:48:52.881Z,101070.13
2022-08-25T02:51:22.199Z,101073.56
2022-08-25T02:53:49.758Z,101070.28
2022-08-25T02:56:18.841Z,101060.78
2022-08-25T02:58:46.292Z,101064.50
2022-08-25T03:01:14.424Z,101067.22
2022-08-25T03:03:44.281Z,101061.41
2022-08-25T03:06:13.235Z,101069.72
2022-08-25T03:08:40.429Z,101068.44
2022-08-25T03:11:07.355Z,101072.66
2022-08-25T03:13:34.392Z,101065.41
2022-08-25T03:16:04.853Z,101061.66
2022-08-25T03:18:31.855Z,101064.91
2022-08-25T03:20:58.678Z,101059.72
2022-08-25T03:23:25.734Z,101056.94
2022-08-25T03:26:14.941Z,101063.16
2022-08-25T03:28:41.671Z,101052.69
2022-08-25T03:31:09.292Z,101054.25
2022-08-25T03:33:38.322Z,101051.66
2022-08-25T03:36:06.343Z,101054.31
2022-08-25T03:38:33.416Z,101057.25
2022-08-25T03:41:00.220Z,101057.78
2022-08-25T03:43:26.772Z,101050.31
2022-08-25T03:45:53.641Z,101051.72
2022-08-25T03:48:20.458Z,101048.06
2022-08-25T03:50:50.502Z,101044.50
2022-08-25T03:53:20.512Z,101038.53
2022-08-25T03:55:47.960Z,101052.72
2022-08-25T03:58:15.410Z,101047.28
2022-08-25T04:00:42.202Z,101046.31
2022-08-25T04:03:08.940Z,101048.72
2022-08-25T04:05:35.562Z,101039.28
2022-08-25T04:08:02.481Z,101043.84
2022-08-25T04:10:29.746Z,101046.38
2022-08-25T04:12:57.082Z,101050.44
2022-08-25T04:15:30.084Z,101050.91
2022-08-25T04:17:59.030Z,101054.41
2022-08-25T04:20:26.032Z,101058.75
2022-08-25T04:22:52.945Z,101065.00
2022-08-25T04:25:19.965Z,101069.22
2022-08-25T04:27:46.524Z,101067.03
2022-08-25T04:30:13.859Z,101059.66
2022-08-25T04:32:40.595Z,101059.38
2022-08-25T04:35:07.543Z,101063.72
2022-08-25T04:37:34.600Z,101074.00
2022-08-25T04:40:01.647Z,101068.41
2022-08-25T04:42:28.694Z,101066.31
2022-08-25T04:44:55.745Z,101062.94
2022-08-25T04:47:23.060Z,101058.22
2022-08-25T04:49:49.659Z,101059.94
2022-08-25T04:52:16.300Z,101055.53
2022-08-25T04:54:43.844Z,101047.59
2022-08-25T04:57:11.156Z,101047.59
2022-08-25T04:59:38.194Z,101052.34
2022-08-25T05:02:06.572Z,101047.66
2022-08-25T05:04:35.350Z,101044.44
2022-08-25T05:07:03.531Z,101044.41
2022-08-25T05:09:32.635Z,101042.44
2022-08-25T05:12:01.000Z,101052.19
2022-08-25T05:14:28.684Z,101061.75
2022-08-25T05:16:56.111Z,101061.72
2022-08-25T05:19:24.104Z,101058.72
2022-08-25T05:21:51.097Z,101060.97
2022-08-25T05:24:18.587Z,101066.72
2022-08-25T05:26:45.200Z,101075.03
2022-08-25T05:29:12.106Z,101075.94
2022-08-25T05:31:42.542Z,101076.47
2022-08-25T05:34:12.195Z,101081.69
2022-08-25T05:36:43.528Z,101084.81
2022-08-25T05:39:10.994Z,101080.56
2022-08-25T05:41:38.683Z,101082.31
2022-08-25T05:44:05.408Z,101082.81
2022-08-25T05:46:32.370Z,101082.88
2022-08-25T05:48:59.192Z,101080.78
2022-08-25T05:51:26.672Z,101073.47
2022-08-25T05:53:53.670Z,101061.25
2022-08-25T05:56:20.883Z,101055.25
2022-08-25T05:58:48.046Z,101048.34
2022-08-25T06:02:03.990Z,101060.69
2022-08-25T06:04:30.671Z,101061.22
2022-08-25T06:06:57.284Z,101066.47
2022-08-25T06:09:24.256Z,101056.81
2022-08-25T06:11:54.728Z,101054.22
2022-08-25T06:14:23.297Z,101062.22
2022-08-25T06:16:51.599Z,101057.19
2022-08-25T06:19:18.548Z,101065.16
2022-08-25T06:21:45.123Z,101064.63
2022-08-25T06:24:15.378Z,101054.44
2022-08-25T06:26:43.972Z,101058.28
2022-08-25T06:29:10.554Z,101054.25
2022-08-25T06:31:37.130Z,101054.25
2022-08-25T06:34:04.104Z,101057.16
2022-08-25T06:36:30.631Z,101056.69
2022-08-25T06:38:57.299Z,101064.53
2022-08-25T06:41:25.631Z,101083.00
2022-08-25T06:44:05.210Z,101084.38
2022-08-25T06:46:36.258Z,101082.19
2022-08-25T06:49:04.881Z,101082.47
2022-08-25T06:51:31.627Z,101077.84
2022-08-25T06:53:58.190Z,101076.72
2022-08-25T06:56:24.824Z,101072.78
2022-08-25T06:58:53.593Z,101074.75
2022-08-25T07:01:25.772Z,101066.34
2022-08-25T07:03:57.676Z,101066.38
2022-08-25T07:06:27.035Z,101065.00
2022-08-25T07:08:54.203Z,101055.94
2022-08-25T07:11:21.381Z,101063.66
2022-08-25T07:13:49.138Z,101062.28
2022-08-25T07:16:18.348Z,101059.63
2022-08-25T07:18:46.546Z,101059.28
2022-08-25T07:21:13.913Z,101056.38
2022-08-25T07:23:42.205Z,101049.25
2022-08-25T07:26:36.315Z,101045.53
2022-08-25T07:29:01.965Z,101055.66
2022-08-25T07:31:30.051Z,101058.31
2022-08-25T07:34:16.622Z,101052.47
2022-08-25T07:36:43.987Z,101051.56
2022-08-25T07:39:11.103Z,101050.53
2022-08-25T07:41:40.572Z,101048.13
2022-08-25T07:44:08.315Z,101053.94
2022-08-25T07:46:35.159Z,101054.75
2022-08-25T07:49:01.974Z,101066.41
2022-08-25T07:51:29.007Z,101069.53
2022-08-25T07:53:55.752Z,101063.78
2022-08-25T07:56:22.730Z,101064.44
2022-08-25T07:58:49.916Z,101072.69
2022-08-25T08:01:18.906Z,101071.69
2022-08-25T08:03:50.474Z,101068.88
2022-08-25T08:06:21.452Z,101069.59
2022-08-25T08:08:49.687Z,101064.25
2022-08-25T08:11:23.273Z,101070.63
2022-08-25T08:13:51.656Z,101077.19
2022-08-25T08:16:19.767Z,101069.28
2022-08-25T08:18:47.052Z,101068.56
2022-08-25T08:21:26.331Z,101058.09
2022-08-25T08:23:59.078Z,101060.28
2022-08-25T08:26:48.140Z,101050.66
2022-08-25T08:29:16.337Z,101050.09
2022-08-25T08:31:48.370Z,101045.19
2022-08-25T08:34:16.443Z,101040.44
2022-08-25T08:36:43.135Z,101035.16
2022-08-25T08:39:12.502Z,101036.78
2022-08-25T08:42:13.164Z,101028.94
2022-08-25T08:45:01.979Z,101030.75
2022-08-25T08:48:02.854Z,101020.94
2022-08-25T08:50:51.659Z,101018.47
2022-08-25T08:53:27.816Z,101017.19
2022-08-25T08:56:14.144Z,101006.94
2022-08-25T08:58:55.580Z,101012.66
2022-08-25T09:01:33.398Z,101011.00
2022-08-25T09:04:09.422Z,101006.09
2022-08-25T09:06:48.516Z,101007.78
2022-08-25T09:09:27.763Z,101008.50
2022-08-25T09:12:12.390Z,101001.03
2022-08-25T09:15:02.913Z,101001.44
2022-08-25T09:18:00.695Z,101002.03
2022-08-25T09:20:53.366Z,100985.47
2022-08-25T09:23:27.328Z,100997.84
2022-08-25T09:26:03.434Z,100994.00
2022-08-25T09:28:37.153Z,100988.13
2022-08-25T09:31:29.609Z,100977.56
2022-08-25T09:33:59.792Z,100983.31
2022-08-25T09:36:26.992Z,100979.28
2022-08-25T09:38:55.247Z,100974.09
2022-08-25T09:41:51.996Z,100969.22
2022-08-25T09:44:33.126Z,100963.66
2022-08-25T09:47:17.881Z,100951.81
2022-08-25T09:49:45.958Z,100956.03
2022-08-25T09:52:29.029Z,100959.88
2022-08-25T09:54:58.024Z,100953.03
2022-08-25T09:57:29.091Z,100955.91
2022-08-25T09:59:57.853Z,100957.09
2022-08-25T10:02:28.520Z,100951.31
2022-08-25T10:04:56.169Z,100942.56
2022-08-25T10:07:27.990Z,100952.91
2022-08-25T10:09:59.536Z,100952.78
2022-08-25T10:12:33.363Z,100953.31
2022-08-25T10:15:00.126Z,100944.25
2022-08-25T10:17:30.566Z,100939.16
2022-08-25T10:20:22.902Z,100938.38
2022-08-25T10:22:50.380Z,100938.09
2022-08-25T10:25:28.030Z,100925.13
2022-08-25T10:28:25.376Z,100920.19
2022-08-25T10:31:20.309Z,100915.34
2022-08-25T10:34:16.610Z,100913.06
2022-08-25T10:37:32.609Z,100915.63
2022-08-25T10:40:08.542Z,100914.19
2022-08-25T10:43:24.085Z,100897.38
2022-08-25T10:46:08.940Z,100879.72
2022-08-25T10:48:56.416Z,100889.00
2022-08-25T10:51:41.839Z,100892.78
2022-08-25T10:54:53.328Z,100885.78
2022-08-25T10:57:46.681Z,100869.19
2022-08-25T11:00:18.150Z,100873.09
2022-08-25T11:03:03.415Z,100868.94
2022-08-25T11:05:47.752Z,100870.28
2022-08-25T11:08:36.354Z,100866.06
2022-08-25T11:11:13.183Z,100853.38
2022-08-25T11:14:20.986Z,100841.00
2022-08-25T11:17:06.176Z,100840.59
2022-08-25T11:19:57.204Z,100837.72
2022-08-25T11:22:36.081Z,100840.31
2022-08-25T11:25:21.764Z,100829.09
2022-08-25T11:28:01.967Z,100826.06
2022-08-25T11:30:28.963Z,100829.34
2022-08-25T11:32:56.748Z,100835.25
2022-08-25T11:35:51.051Z,100834.16
2022-08-25T11:38:51.774Z,100825.78
2022-08-25T11:41:36.116Z,100830.19
2022-08-25T11:44:26.810Z,100829.09
2022-08-25T11:46:59.360Z,100816.44
2022-08-25T11:49:46.161Z,100825.16
2022-08-25T11:52:49.069Z,100822.34
2022-08-25T11:55:25.673Z,100811.94
2022-08-25T11:58:13.153Z,100814.47
2022-08-25T12:00:43.480Z,100812.38
2022-08-25T12:03:31.531Z,100818.47
2022-08-25T12:06:28.258Z,100807.50
2022-08-25T12:09:01.412Z,100807.97
2022-08-25T12:11:46.892Z,100817.03
2022-08-25T12:14:27.965Z,100817.97
2022-08-25T12:16:55.010Z,100805.56
2022-08-25T12:19:37.973Z,100809.38
2022-08-25T12:22:04.806Z,100794.56
2022-08-25T12:24:57.303Z,100795.66
2022-08-25T12:27:33.610Z,100804.22
2022-08-25T12:30:21.883Z,100795.25
2022-08-25T12:33:12.987Z,100793.94
2022-08-25T12:36:03.581Z,100786.88
2022-08-25T12:38:43.560Z,100787.94
2022-08-25T12:41:30.900Z,100783.44
2022-08-25T12:44:35.538Z,100785.03
2022-08-25T12:47:23.465Z,100780.66
2022-08-25T12:49:50.824Z,100788.69
2022-08-25T12:52:20.887Z,100778.22
2022-08-25T12:55:14.059Z,100772.31
2022-08-25T12:57:45.086Z,100757.53
2022-08-25T13:00:23.635Z,100763.78
2022-08-25T13:03:30.319Z,100769.00
2022-08-25T13:06:21.935Z,100765.84
2022-08-25T13:09:03.775Z,100756.81
2022-08-25T13:11:43.146Z,100753.16
2022-08-25T13:14:17.792Z,100743.47
2022-08-25T13:16:56.068Z,100752.84
2022-08-25T13:19:24.263Z,100748.34
2022-08-25T13:21:51.590Z,100744.34
2022-08-25T13:24:30.490Z,100746.31
2022-08-25T13:27:18.045Z,100749.41
2022-08-25T13:29:54.564Z,100739.03
2022-08-25T13:32:32.475Z,100741.91
2022-08-25T13:35:21.325Z,100738.66
2022-08-25T13:37:49.575Z,100746.91
2022-08-25T13:40:26.911Z,100751.91
2022-08-25T13:42:59.098Z,100736.94
2022-08-25T13:45:31.846Z,100741.59
2022-08-25T13:47:59.208Z,100742.03
2022-08-25T13:50:26.315Z,100735.50
2022-08-25T13:52:57.115Z,100738.56
2022-08-25T13:55:38.155Z,100718.78
2022-08-25T13:58:38.690Z,100738.53
2022-08-25T14:01:47.201Z,100721.59
2022-08-25T14:04:24.545Z,100724.66
2022-08-25T14:07:20.810Z,100729.06
2022-08-25T14:09:56.859Z,100706.63
2022-08-25T14:12:39.891Z,100710.22
2022-08-25T14:15:20.271Z,100706.09
2022-08-25T14:18:00.501Z,100709.94
2022-08-25T14:20:31.392Z,100701.38
2022-08-25T14:23:02.628Z,100699.06
2022-08-25T14:25:30.494Z,100698.78
2022-08-25T14:28:07.449Z,100690.09
2022-08-25T14:30:36.663Z,100696.56
2022-08-25T14:33:03.983Z,100692.34
2022-08-25T14:35:31.383Z,100683.56
2022-08-25T14:37:58.651Z,100677.69
2022-08-25T14:40:25.462Z,100676.34
2022-08-25T14:42:52.180Z,100671.09
2022-08-25T14:45:19.257Z,100679.72
2022-08-25T14:47:49.816Z,100680.88
2022-08-25T14:50:20.949Z,100667.03
2022-08-25T14:52:48.239Z,100667.88
2022-08-25T14:55:31.526Z,100662.78
2022-08-25T14:57:59.758Z,100666.41
2022-08-25T15:00:26.539Z,100664.53
2022-08-25T15:02:55.012Z,100660.22
2022-08-25T15:05:28.309Z,100649.69
2022-08-25T15:08:14.998Z,100652.56
2022-08-25T15:10:43.388Z,100653.19
2022-08-25T15:13:10.854Z,100640.69
2022-08-25T15:15:52.156Z,100648.75
2022-08-25T15:18:20.948Z,100626.88
2022-08-25T15:20:50.049Z,100639.03
2022-08-25T15:23:20.913Z,100626.03
2022-08-25T15:25:52.792Z,100633.84
2022-08-25T15:28:21.967Z,100625.63
2022-08-25T15:30:48.735Z,100626.13
2022-08-25T15:33:15.282Z,100621.06
2022-08-25T15:35:41.872Z,100624.41
2022-08-25T15:38:10.191Z,100613.06
2022-08-25T15:40:38.976Z,100609.34
2022-08-25T15:43:06.889Z,100613.34
2022-08-25T15:45:35.771Z,100606.22
2022-08-25T15:48:02.498Z,100613.66
2022-08-25T15:50:29.914Z,100605.72
2022-08-25T15:52:56.714Z,100605.75
2022-08-25T15:55:23.446Z,100603.47
2022-08-25T15:57:50.778Z,100602.16
2022-08-25T16:00:18.935Z,100603.19
2022-08-25T16:02:46.308Z,100603.75
2022-08-25T16:05:13.811Z,100606.53
2022-08-25T16:07:45.713Z,100598.38
2022-08-25T16:10:13.804Z,100597.31
2022-08-25T16:12:42.753Z,100589.78
2022-08-25T16:15:12.262Z,100595.84
2022-08-25T16:17:40.718Z,100582.66
2022-08-25T16:20:13.715Z,100589.25
2022-08-25T16:22:41.237Z,100580.97
2022-08-25T16:25:08.436Z,100591.41
2022-08-25T16:27:38.589Z,100583.53
2022-08-25T16:30:07.993Z,100584.75
2022-08-25T16:32:35.198Z,100582.00
2022-08-25T16:35:03.148Z,100588.94
2022-08-25T16:37:30.071Z,100590.97
2022-08-25T16:39:57.565Z,100583.28
2022-08-25T16:42:24.368Z,100579.25
2022-08-25T16:44:54.121Z,100580.56
2022-08-25T16:47:25.200Z,100575.66
2022-08-25T16:49:54.271Z,100572.75
2022-08-25T16:52:40.717Z,100587.94
2022-08-25T16:55:16.053Z,100580.09
2022-08-25T16:57:47.725Z,100569.88
2022-08-25T17:08:28.164Z,100576.53
2022-08-25T17:11:57.180Z,100571.06
2022-08-25T17:15:39.856Z,100571.38
2022-08-25T17:21:40.039Z,100577.41
2022-08-25T17:24:59.379Z,100572.22
2022-08-25T17:31:02.239Z,100579.91
2022-08-25T17:34:29.159Z,100566.41
2022-08-25T17:37:19.270Z,100568.31
2022-08-25T17:40:14.663Z,100569.66
2022-08-25T17:56:47.495Z,100581.91
2022-08-25T18:00:04.129Z,100575.72
2022-08-25T18:06:03.928Z,100575.19
2022-08-25T18:09:49.384Z,100576.88
2022-08-25T18:16:33.150Z,100581.69
2022-08-25T19:11:52.591Z,100588.72
2022-08-25T19:14:21.675Z,100588.22
2022-08-25T19:16:48.696Z,100583.09
2022-08-25T19:19:15.495Z,100593.91
2022-08-25T19:21:42.880Z,100591.78
2022-08-25T19:24:12.272Z,100589.66
2022-08-25T19:26:39.196Z,100583.06
2022-08-25T19:29:09.279Z,100584.63
2022-08-25T19:31:37.476Z,100586.78
2022-08-25T19:34:07.973Z,100586.50
2022-08-25T19:36:34.527Z,100586.50
2022-08-25T19:39:01.388Z,100585.69
2022-08-25T19:41:31.126Z,100588.38
2022-08-25T19:43:58.686Z,100588.81
2022-08-25T19:46:32.768Z,100590.31
2022-08-25T19:49:17.368Z,100596.41
2022-08-25T19:51:51.048Z,100587.19
2022-08-25T19:54:26.265Z,100589.31
2022-08-25T19:56:54.797Z,100584.81
2022-08-25T19:59:40.364Z,100594.38
2022-08-25T20:02:15.916Z,100598.13
2022-08-25T20:04:49.890Z,100595.94
2022-08-25T20:07:19.314Z,100592.91
2022-08-25T20:09:46.292Z,100596.81
2022-08-25T20:14:40.200Z,100589.72
2022-08-25T20:17:13.166Z,100593.59
2022-08-25T20:19:52.458Z,100602.72
2022-08-25T20:22:25.009Z,100593.84
2022-08-25T20:24:56.240Z,100598.03
2022-08-25T20:27:28.169Z,100596.31
2022-08-25T20:29:55.375Z,100599.56
2022-08-25T20:32:24.021Z,100597.31
2022-08-25T20:34:53.815Z,100601.81
2022-08-25T20:37:22.484Z,100601.69
2022-08-25T20:39:49.167Z,100597.19
2022-08-25T20:42:16.308Z,100604.97
2022-08-25T20:44:43.233Z,100597.84
2022-08-25T20:47:10.991Z,100601.94
2022-08-25T20:49:43.642Z,100599.41
2022-08-25T20:52:10.689Z,100605.88
2022-08-25T20:54:37.526Z,100601.50
2022-08-25T20:57:04.406Z,100608.75
2022-08-25T20:59:35.099Z,100608.78
2022-08-25T21:02:02.141Z,100614.00
2022-08-25T21:04:30.223Z,100613.00
2022-08-25T21:07:00.333Z,100618.44
2022-08-25T21:09:28.370Z,100614.06
2022-08-25T21:11:57.342Z,100613.47
2022-08-25T21:14:25.406Z,100614.66
2022-08-25T21:16:54.111Z,100603.91
2022-08-25T21:19:26.707Z,100603.81
2022-08-25T21:22:00.030Z,100602.59
2022-08-25T21:24:28.308Z,100598.75
2022-08-25T21:26:57.687Z,100600.41
2022-08-25T21:29:25.952Z,100594.84
2022-08-25T21:31:56.075Z,100585.53
2022-08-25T21:34:23.399Z,100588.59
2022-08-25T21:36:50.510Z,100592.44
2022-08-25T21:39:17.456Z,100592.06
2022-08-25T21:41:45.403Z,100588.81
2022-08-25T21:44:13.310Z,100594.31
2022-08-25T21:46:41.319Z,100596.47
2022-08-25T21:49:08.498Z,100591.69
2022-08-25T21:51:41.464Z,100597.66
2022-08-25T21:54:13.428Z,100595.44
2022-08-25T21:56:42.020Z,100595.44
2022-08-25T21:59:20.833Z,100589.50
2022-08-25T22:01:48.197Z,100591.13
2022-08-25T22:04:15.778Z,100594.19
2022-08-25T22:06:42.630Z,100583.81
2022-08-25T22:09:12.785Z,100589.09
2022-08-25T22:11:41.867Z,100584.34
2022-08-25T22:14:09.909Z,100588.38
2022-08-25T22:16:38.094Z,100590.88
2022-08-25T22:19:07.248Z,100580.06
2022-08-25T22:21:35.547Z,100578.00
2022-08-25T22:24:03.281Z,100579.44
2022-08-25T22:26:31.865Z,100571.53
2022-08-25T22:28:59.512Z,100574.75
2022-08-25T22:31:27.795Z,100569.31
2022-08-25T22:33:56.758Z,100572.44
2022-08-25T22:36:36.432Z,100565.56
2022-08-25T22:39:05.065Z,100575.66
2022-08-25T22:41:31.960Z,100569.56
2022-08-25T22:44:00.114Z,100574.13
2022-08-25T22:46:32.309Z,100566.66
2022-08-25T22:48:59.987Z,100568.19
2022-08-25T22:51:31.368Z,100554.16
2022-08-25T22:53:59.857Z,100560.94
2022-08-25T22:56:34.292Z,100564.13
2022-08-25T22:59:04.456Z,100570.09
2022-08-25T23:01:32.001Z,100568.13
2022-08-25T23:04:00.904Z,100553.06
2022-08-25T23:06:28.873Z,100555.09
2022-08-25T23:08:56.256Z,100553.78
2022-08-25T23:11:24.344Z,100561.75
2022-08-25T23:13:55.314Z,100550.38
2022-08-25T23:16:22.849Z,100553.72
2022-08-25T23:18:49.571Z,100548.69
2022-08-25T23:21:48.569Z,100550.44
2022-08-25T23:24:27.087Z,100544.91
2022-08-25T23:26:58.785Z,100543.38
2022-08-25T23:29:25.742Z,100544.00
2022-08-25T23:31:53.719Z,100549.63
2022-08-25T23:34:21.675Z,100542.31
2022-08-25T23:36:48.798Z,100535.59
2022-08-25T23:39:15.418Z,100536.66
2022-08-25T23:41:42.234Z,100534.97
2022-08-25T23:44:09.288Z,100525.00
2022-08-25T23:46:39.306Z,100532.41
2022-08-25T23:49:09.410Z,100532.34
2022-08-25T23:51:38.193Z,100529.47
2022-08-25T23:54:09.625Z,100516.88
2022-08-25T23:56:42.525Z,100526.44
2022-08-25T23:59:24.242Z,100528.25
